createdAt,value
2018-11-05T00:01:33.424Z,101161.85
2018-11-05T00:04:02.022Z,101155.30
2018-11-05T00:06:30.351Z,101153.92
2018-11-05T00:08:58.779Z,101158.25
2018-11-05T00:11:27.098Z,101153.81
2018-11-05T00:13:55.419Z,101153.03
2018-11-05T00:16:23.822Z,101152.48
2018-11-05T00:18:52.151Z,101141.81
2018-11-05T00:21:20.508Z,101129.73
2018-11-05T00:23:48.816Z,101118.20
2018-11-05T00:26:17.128Z,101122.36
2018-11-05T00:28:45.449Z,101122.91
2018-11-05T00:31:13.768Z,101114.59
2018-11-05T00:33:42.460Z,101115.14
2018-11-05T00:36:10.778Z,101111.97
2018-11-05T00:38:39.149Z,101110.02
2018-11-05T00:41:07.453Z,101113.03
2018-11-05T00:43:36.098Z,101105.07
2018-11-05T00:46:04.581Z,101111.93
2018-11-05T00:48:33.242Z,101106.40
2018-11-05T00:51:01.557Z,101109.19
2018-11-05T00:53:29.827Z,101113.00
2018-11-05T00:55:58.139Z,101120.68
2018-11-05T00:58:26.446Z,101114.56
2018-11-05T01:00:54.980Z,101121.97
2018-11-05T01:03:23.553Z,101114.28
2018-11-05T01:05:52.019Z,101117.57
2018-11-05T01:08:20.296Z,101106.09
2018-11-05T01:10:48.599Z,101103.14
2018-11-05T01:13:16.930Z,101099.55
2018-11-05T01:15:45.259Z,101101.23
2018-11-05T01:18:13.568Z,101092.95
2018-11-05T01:20:42.078Z,101098.77
2018-11-05T01:23:10.474Z,101098.98
2018-11-05T01:25:38.943Z,101105.81
2018-11-05T01:28:07.584Z,101107.46
2018-11-05T01:30:35.922Z,101118.13
2018-11-05T01:33:04.191Z,101117.85
2018-11-05T01:35:32.592Z,101117.27
2018-11-05T01:38:01.026Z,101108.28
2018-11-05T01:40:29.355Z,101106.91
2018-11-05T01:42:57.856Z,101099.78
2018-11-05T01:45:26.439Z,101096.44
2018-11-05T01:47:54.870Z,101096.52
2018-11-05T01:50:23.738Z,101100.56
2018-11-05T01:52:52.099Z,101100.05
2018-11-05T01:55:20.507Z,101095.42
2018-11-05T01:57:48.807Z,101084.67
2018-11-05T02:00:17.687Z,101079.64
2018-11-05T02:02:47.198Z,101081.83
2018-11-05T02:05:15.522Z,101077.17
2018-11-05T02:07:44.903Z,101072.05
2018-11-05T02:10:14.793Z,101077.17
2018-11-05T02:12:43.116Z,101077.53
2018-11-05T02:15:12.096Z,101076.49
2018-11-05T02:17:42.013Z,101077.53
2018-11-05T02:20:10.348Z,101068.75
2018-11-05T02:22:39.105Z,101047.34
2018-11-05T02:25:08.566Z,101049.22
2018-11-05T02:27:36.882Z,101054.25
2018-11-05T02:30:08.199Z,101044.28
2018-11-05T02:32:36.537Z,101053.34
2018-11-05T02:35:06.852Z,101054.16
2018-11-05T02:37:35.386Z,101049.39
2018-11-05T02:40:04.618Z,101049.53
2018-11-05T02:42:32.922Z,101052.84
2018-11-05T02:45:01.214Z,101057.17
2018-11-05T02:47:29.825Z,101057.23
2018-11-05T02:49:58.264Z,101070.36
2018-11-05T02:52:26.595Z,101065.64
2018-11-05T02:54:54.924Z,101069.80
2018-11-05T02:57:24.199Z,101061.02
2018-11-05T02:59:52.496Z,101068.39
2018-11-05T03:02:20.828Z,101067.01
2018-11-05T03:04:49.155Z,101068.66
2018-11-05T03:07:17.777Z,101079.27
2018-11-05T03:09:46.179Z,101067.20
2018-11-05T03:12:14.680Z,101069.81
2018-11-05T03:14:42.972Z,101068.15
2018-11-05T03:17:11.312Z,101072.50
2018-11-05T03:19:39.760Z,101067.29
2018-11-05T03:22:08.139Z,101062.67
2018-11-05T03:24:36.438Z,101068.66
2018-11-05T03:27:04.947Z,101075.56
2018-11-05T03:29:33.260Z,101069.77
2018-11-05T03:32:01.709Z,101067.84
2018-11-05T03:34:29.994Z,101067.06
2018-11-05T03:36:58.379Z,101063.94
2018-11-05T03:39:26.857Z,101056.90
2018-11-05T03:41:55.228Z,101064.59
2018-11-05T03:44:23.906Z,101066.42
2018-11-05T03:46:52.216Z,101068.89
2018-11-05T03:49:20.741Z,101065.05
2018-11-05T03:51:49.155Z,101049.49
2018-11-05T03:54:17.502Z,101046.97
2018-11-05T03:56:45.867Z,101047.57
2018-11-05T03:59:14.124Z,101049.17
2018-11-05T04:01:42.680Z,101038.73
2018-11-05T04:04:11.103Z,101037.18
2018-11-05T04:06:45.471Z,101032.52
2018-11-05T04:09:13.930Z,101028.12
2018-11-05T04:11:42.322Z,101021.44
2018-11-05T04:14:10.700Z,101022.48
2018-11-05T04:16:39.092Z,101016.60
2018-11-05T04:19:08.168Z,101019.84
2018-11-05T04:21:43.056Z,101015.12
2018-11-05T04:24:15.809Z,101019.52
2018-11-05T04:26:46.073Z,101016.17
2018-11-05T04:29:14.347Z,101014.84
2018-11-05T04:31:42.818Z,101009.86
2018-11-05T04:34:11.709Z,101016.44
2018-11-05T04:36:40.113Z,101011.60
2018-11-05T04:39:09.966Z,100996.52
2018-11-05T04:41:38.290Z,100992.66
2018-11-05T04:44:06.936Z,100993.48
2018-11-05T04:46:35.444Z,100995.19
2018-11-05T04:49:03.862Z,100999.59
2018-11-05T04:51:32.669Z,100996.83
2018-11-05T04:54:01.154Z,100994.02
2018-11-05T04:56:29.518Z,100999.03
2018-11-05T04:58:57.811Z,101006.22
2018-11-05T05:04:23.003Z,101006.62
2018-11-05T05:06:52.436Z,101005.62
2018-11-05T05:09:21.510Z,101005.67
2018-11-05T05:11:50.736Z,101012.70
2018-11-05T05:14:20.089Z,101013.80
2018-11-05T05:16:49.424Z,101012.43
2018-11-05T05:19:18.689Z,101006.89
2018-11-05T05:21:47.923Z,101002.86
2018-11-05T05:24:17.343Z,101003.14
2018-11-05T05:26:46.724Z,101009.45
2018-11-05T05:29:16.001Z,101011.43
2018-11-05T05:31:45.513Z,101003.52
2018-11-05T05:34:14.720Z,101000.73
2018-11-05T05:36:44.029Z,101002.33
2018-11-05T05:39:13.394Z,100991.35
2018-11-05T05:41:42.713Z,100993.41
2018-11-05T05:44:11.876Z,100990.58
2018-11-05T05:46:41.484Z,100991.34
2018-11-05T05:49:10.785Z,100984.91
2018-11-05T05:51:39.962Z,100976.13
2018-11-05T05:54:09.094Z,100983.27
2018-11-05T05:56:38.636Z,100990.30
2018-11-05T05:59:08.012Z,100992.05
2018-11-05T06:01:37.323Z,101001.16
2018-11-05T06:04:06.538Z,101004.84
2018-11-05T06:06:36.333Z,100996.39
2018-11-05T06:09:07.685Z,100997.85
2018-11-05T06:11:37.106Z,101003.53
2018-11-05T06:14:06.414Z,101005.76
2018-11-05T06:16:36.489Z,101004.71
2018-11-05T06:19:05.863Z,101005.45
2018-11-05T06:21:35.024Z,101003.52
2018-11-05T06:24:04.391Z,101013.89
2018-11-05T06:26:33.879Z,101016.73
2018-11-05T06:29:04.093Z,101024.30
2018-11-05T06:31:33.436Z,101030.97
2018-11-05T06:34:02.625Z,101037.32
2018-11-05T06:36:32.030Z,101029.32
2018-11-05T06:39:01.318Z,101026.39
2018-11-05T06:41:30.534Z,101022.28
2018-11-05T06:43:59.708Z,101020.58
2018-11-05T06:46:28.940Z,101016.65
2018-11-05T06:48:58.452Z,101010.16
2018-11-05T06:51:27.841Z,101015.28
2018-11-05T06:53:57.111Z,101010.94
2018-11-05T06:56:29.248Z,101017.02
2018-11-05T06:59:02.395Z,101016.42
2018-11-05T07:01:32.481Z,101018.97
2018-11-05T07:04:03.819Z,101020.27
2018-11-05T07:06:33.248Z,101024.56
2018-11-05T07:09:02.841Z,101026.25
2018-11-05T07:11:32.335Z,101021.81
2018-11-05T07:14:01.477Z,101026.53
2018-11-05T07:16:30.881Z,101030.77
2018-11-05T07:19:00.249Z,101032.80
2018-11-05T07:21:29.288Z,101045.42
2018-11-05T07:23:58.641Z,101044.09
2018-11-05T07:26:28.011Z,101040.76
2018-11-05T07:28:57.441Z,101038.74
2018-11-05T07:31:26.686Z,101034.94
2018-11-05T07:33:56.139Z,101043.50
2018-11-05T07:36:25.292Z,101037.31
2018-11-05T07:38:54.466Z,101038.55
2018-11-05T07:41:23.806Z,101035.66
2018-11-05T07:43:53.263Z,101043.44
2018-11-05T07:46:22.368Z,101039.02
2018-11-05T07:48:51.564Z,101036.86
2018-11-05T07:51:20.773Z,101033.84
2018-11-05T07:53:49.937Z,101025.00
2018-11-05T07:56:19.464Z,101021.27
2018-11-05T07:58:48.427Z,101013.68
2018-11-05T08:01:17.709Z,101025.98
2018-11-05T08:03:47.027Z,101028.50
2018-11-05T08:06:16.277Z,101026.76
2018-11-05T08:08:45.621Z,101025.16
2018-11-05T08:11:14.751Z,101017.32
2018-11-05T08:13:43.937Z,101025.78
2018-11-05T08:16:13.364Z,101029.55
2018-11-05T08:18:42.714Z,101024.11
2018-11-05T08:21:11.953Z,101024.66
2018-11-05T08:23:41.030Z,101026.92
2018-11-05T08:26:10.281Z,101006.44
2018-11-05T08:28:39.613Z,101015.78
2018-11-05T08:32:07.882Z,101023.53
2018-11-05T08:34:37.197Z,101022.22
2018-11-05T08:37:06.453Z,101018.48
2018-11-05T08:39:35.712Z,101019.81
2018-11-05T08:42:05.137Z,101012.11
2018-11-05T08:44:34.409Z,101008.16
2018-11-05T08:47:03.549Z,101010.13
2018-11-05T08:49:32.696Z,101008.75
2018-11-05T08:52:01.909Z,101011.01
2018-11-05T08:54:31.152Z,101014.99
2018-11-05T08:57:00.321Z,101020.90
2018-11-05T08:59:29.508Z,101024.33
2018-11-05T09:01:58.928Z,101021.59
2018-11-05T09:04:27.998Z,101013.82
2018-11-05T09:06:57.218Z,101014.17
2018-11-05T09:09:26.587Z,101018.14
2018-11-05T09:11:55.894Z,101014.55
2018-11-05T09:14:25.195Z,101015.69
2018-11-05T09:16:54.630Z,101020.96
2018-11-05T09:19:23.804Z,101015.98
2018-11-05T09:21:53.050Z,101016.56
2018-11-05T09:24:22.329Z,101016.03
2018-11-05T09:26:51.873Z,101015.39
2018-11-05T09:29:21.133Z,101011.53
2018-11-05T09:31:50.673Z,101010.80
2018-11-05T09:34:20.004Z,101015.27
2018-11-05T09:36:49.125Z,101012.11
2018-11-05T09:39:18.305Z,101001.47
2018-11-05T09:41:47.541Z,101002.64
2018-11-05T09:44:16.822Z,101002.90
2018-11-05T09:46:46.054Z,100992.16
2018-11-05T09:49:15.433Z,101002.86
2018-11-05T09:51:45.005Z,101003.43
2018-11-05T09:54:14.325Z,101001.31
2018-11-05T09:56:43.909Z,101009.34
2018-11-05T09:59:13.224Z,101004.88
2018-11-05T10:01:42.361Z,101008.85
2018-11-05T10:04:11.579Z,101004.28
2018-11-05T10:06:41.544Z,101006.80
2018-11-05T10:09:12.363Z,100998.31
2018-11-05T10:11:42.004Z,100996.84
2018-11-05T10:14:11.049Z,100994.41
2018-11-05T10:16:40.305Z,100981.15
2018-11-05T10:19:09.680Z,100987.30
2018-11-05T10:21:38.985Z,100982.98
2018-11-05T10:24:08.068Z,100972.89
2018-11-05T10:26:37.375Z,100979.01
2018-11-05T10:29:06.682Z,100988.83
2018-11-05T10:31:35.898Z,100983.73
2018-11-05T10:34:05.153Z,100983.03
2018-11-05T10:36:34.580Z,100971.70
2018-11-05T10:39:04.356Z,100977.47
2018-11-05T10:41:33.597Z,100966.37
2018-11-05T10:44:02.959Z,100973.52
2018-11-05T10:46:32.405Z,100956.52
2018-11-05T10:49:01.788Z,100947.70
2018-11-05T10:51:31.198Z,100947.75
2018-11-05T10:54:00.588Z,100940.09
2018-11-05T10:56:29.917Z,100934.17
2018-11-05T10:58:59.273Z,100938.77
2018-11-05T11:01:33.573Z,100942.20
2018-11-05T11:04:14.454Z,100926.17
2018-11-05T11:06:43.957Z,100925.37
2018-11-05T11:09:12.966Z,100934.50
2018-11-05T11:11:43.177Z,100938.63
2018-11-05T11:14:12.284Z,100936.83
2018-11-05T11:16:41.724Z,100933.58
2018-11-05T11:19:10.902Z,100930.20
2018-11-05T11:21:40.360Z,100918.57
2018-11-05T11:24:09.411Z,100905.37
2018-11-05T11:26:38.626Z,100898.03
2018-11-05T11:29:08.460Z,100892.20
2018-11-05T11:31:37.628Z,100901.77
2018-11-05T11:34:07.168Z,100897.41
2018-11-05T11:36:36.454Z,100892.61
2018-11-05T11:39:07.049Z,100887.84
2018-11-05T11:41:36.377Z,100874.06
2018-11-05T11:44:05.818Z,100871.59
2018-11-05T11:46:35.419Z,100870.91
2018-11-05T11:49:04.651Z,100870.69
2018-11-05T11:51:33.983Z,100855.06
2018-11-05T11:54:03.251Z,100846.52
2018-11-05T11:56:32.528Z,100850.63
2018-11-05T11:59:01.931Z,100848.88
2018-11-05T12:01:35.661Z,100842.18
2018-11-05T12:04:05.119Z,100831.11
2018-11-05T12:06:34.295Z,100832.52
2018-11-05T12:09:04.013Z,100843.76
2018-11-05T12:11:33.308Z,100843.97
2018-11-05T12:14:02.631Z,100847.55
2018-11-05T12:16:31.978Z,100844.56
2018-11-05T12:19:01.192Z,100822.73
2018-11-05T12:21:30.577Z,100826.02
2018-11-05T12:23:59.842Z,100829.63
2018-11-05T12:26:29.086Z,100819.61
2018-11-05T12:28:58.361Z,100819.66
2018-11-05T12:31:27.802Z,100823.94
2018-11-05T12:33:56.946Z,100826.36
2018-11-05T12:36:26.198Z,100830.65
2018-11-05T12:38:55.546Z,100830.94
2018-11-05T12:41:24.688Z,100831.16
2018-11-05T12:43:53.939Z,100825.78
2018-11-05T12:46:23.064Z,100820.51
2018-11-05T12:48:52.244Z,100813.70
2018-11-05T12:51:21.465Z,100813.47
2018-11-05T12:53:50.642Z,100807.73
2018-11-05T12:56:19.863Z,100808.62
2018-11-05T12:58:49.043Z,100806.80
2018-11-05T13:01:18.473Z,100814.12
2018-11-05T13:03:47.565Z,100816.15
2018-11-05T13:06:16.770Z,100793.27
2018-11-05T13:08:46.133Z,100785.83
2018-11-05T13:11:15.360Z,100780.73
2018-11-05T13:13:44.639Z,100780.43
2018-11-05T13:16:13.874Z,100766.09
2018-11-05T13:18:43.044Z,100776.31
2018-11-05T13:21:12.377Z,100783.38
2018-11-05T13:23:45.175Z,100783.83
2018-11-05T13:26:15.477Z,100783.38
2018-11-05T13:28:44.751Z,100780.20
2018-11-05T13:31:14.205Z,100780.31
2018-11-05T13:33:43.450Z,100783.68
2018-11-05T13:36:12.781Z,100776.05
2018-11-05T13:38:41.946Z,100774.89
2018-11-05T13:41:11.264Z,100771.91
2018-11-05T13:43:40.648Z,100763.18
2018-11-05T13:46:10.130Z,100772.07
2018-11-05T13:48:39.471Z,100768.84
2018-11-05T13:51:08.156Z,100765.05
2018-11-05T13:53:37.157Z,100767.81
2018-11-05T13:56:06.730Z,100769.34
2018-11-05T13:58:36.105Z,100762.66
2018-11-05T14:01:05.741Z,100758.07
2018-11-05T14:03:35.181Z,100755.05
2018-11-05T14:06:04.576Z,100758.09
2018-11-05T14:08:33.876Z,100752.45
2018-11-05T14:11:03.143Z,100758.63
2018-11-05T14:13:32.353Z,100756.81
2018-11-05T14:16:01.683Z,100751.56
2018-11-05T14:18:31.245Z,100753.25
2018-11-05T14:21:00.679Z,100755.16
2018-11-05T14:23:29.625Z,100746.32
2018-11-05T14:25:58.925Z,100751.02
2018-11-05T14:28:28.543Z,100743.69
2018-11-05T14:30:57.464Z,100751.58
2018-11-05T14:33:26.729Z,100746.95
2018-11-05T14:35:59.814Z,100744.06
2018-11-05T14:38:30.047Z,100739.48
2018-11-05T14:41:03.587Z,100739.42
2018-11-05T14:43:34.430Z,100742.28
2018-11-05T14:46:03.760Z,100738.91
2018-11-05T14:48:33.145Z,100736.19
2018-11-05T14:51:02.476Z,100730.92
2018-11-05T14:53:31.584Z,100726.80
2018-11-05T14:56:01.309Z,100730.52
2018-11-05T14:58:30.605Z,100723.89
2018-11-05T15:01:00.056Z,100726.33
2018-11-05T15:03:29.101Z,100723.32
2018-11-05T15:05:58.330Z,100716.32
2018-11-05T15:08:27.686Z,100714.07
2018-11-05T15:10:56.815Z,100717.52
2018-11-05T15:13:26.004Z,100705.20
2018-11-05T15:15:55.407Z,100705.17
2018-11-05T15:18:24.820Z,100708.12
2018-11-05T15:20:54.065Z,100709.09
2018-11-05T15:23:23.277Z,100715.22
2018-11-05T15:25:52.733Z,100706.35
2018-11-05T15:28:22.081Z,100707.17
2018-11-05T15:30:51.238Z,100691.77
2018-11-05T15:33:20.450Z,100708.53
2018-11-05T15:35:49.817Z,100711.73
2018-11-05T15:38:18.897Z,100711.38
2018-11-05T15:40:48.119Z,100716.83
2018-11-05T15:43:17.308Z,100723.98
2018-11-05T15:45:46.518Z,100716.13
2018-11-05T15:48:15.898Z,100710.63
2018-11-05T15:50:45.204Z,100660.14
2018-11-05T15:53:14.788Z,100711.72
2018-11-05T15:55:43.816Z,100712.06
2018-11-05T15:58:12.937Z,100707.98
2018-11-05T16:00:42.109Z,100712.45
2018-11-05T16:03:11.480Z,100711.15
2018-11-05T16:05:40.803Z,100711.77
2018-11-05T16:08:09.880Z,100704.16
2018-11-05T16:10:39.106Z,100701.90
2018-11-05T16:13:08.483Z,100700.60
2018-11-05T16:15:37.803Z,100697.52
2018-11-05T16:18:06.943Z,100699.52
2018-11-05T16:20:37.486Z,100700.70
2018-11-05T16:23:07.038Z,100697.45
2018-11-05T16:25:36.585Z,100697.93
2018-11-05T16:28:06.506Z,100698.48
2018-11-05T16:30:35.810Z,100694.16
2018-11-05T16:33:05.139Z,100691.14
2018-11-05T16:35:34.418Z,100694.53
2018-11-05T16:38:03.629Z,100699.84
2018-11-05T16:40:32.752Z,100693.73
2018-11-05T16:43:01.909Z,100699.79
2018-11-05T16:45:31.267Z,100698.00
2018-11-05T16:48:00.301Z,100689.03
2018-11-05T16:50:29.649Z,100692.39
2018-11-05T16:52:58.938Z,100693.73
2018-11-05T16:55:28.237Z,100697.11
2018-11-05T16:57:57.538Z,100689.97
2018-11-05T17:00:26.740Z,100692.05
2018-11-05T17:02:56.107Z,100687.52
2018-11-05T17:05:25.467Z,100688.42
2018-11-05T17:07:54.494Z,100694.86
2018-11-05T17:10:23.820Z,100688.25
2018-11-05T17:12:52.992Z,100695.83
2018-11-05T17:15:22.224Z,100695.41
2018-11-05T17:17:51.489Z,100695.33
2018-11-05T17:20:21.275Z,100704.04
2018-11-05T17:22:50.497Z,100698.48
2018-11-05T17:25:20.648Z,100697.64
2018-11-05T17:27:49.889Z,100694.03
2018-11-05T17:30:20.652Z,100696.85
2018-11-05T17:32:50.156Z,100701.70
2018-11-05T17:35:20.037Z,100703.14
2018-11-05T17:37:50.291Z,100700.53
2018-11-05T17:40:21.857Z,100690.05
2018-11-05T17:42:51.078Z,100684.31
2018-11-05T17:45:20.875Z,100691.61
2018-11-05T17:47:50.209Z,100682.16
2018-11-05T17:50:21.288Z,100680.79
2018-11-05T17:53:53.065Z,100687.51
2018-11-05T17:56:22.608Z,100684.56
2018-11-05T17:58:51.676Z,100691.77
2018-11-05T18:01:21.590Z,100691.55
2018-11-05T18:03:51.474Z,100691.64
2018-11-05T18:06:20.933Z,100692.25
2018-11-05T18:08:50.410Z,100696.57
2018-11-05T18:11:19.871Z,100693.77
2018-11-05T18:13:49.294Z,100690.01
2018-11-05T18:16:18.676Z,100690.39
2018-11-05T18:18:54.444Z,100686.63
2018-11-05T18:21:23.397Z,100689.78
2018-11-05T18:23:52.676Z,100687.74
2018-11-05T18:26:21.928Z,100683.23
2018-11-05T18:28:51.095Z,100678.67
2018-11-05T18:31:20.635Z,100680.74
2018-11-05T18:33:49.576Z,100675.98
2018-11-05T18:36:18.801Z,100674.44
2018-11-05T18:38:48.545Z,100674.12
2018-11-05T18:41:19.484Z,100670.79
2018-11-05T18:43:49.950Z,100672.19
2018-11-05T18:46:19.209Z,100668.30
2018-11-05T18:48:48.368Z,100667.25
2018-11-05T18:51:18.083Z,100659.27
2018-11-05T18:53:47.559Z,100661.58
2018-11-05T18:56:17.141Z,100660.73
2018-11-05T18:58:46.592Z,100653.58
2018-11-05T19:01:16.033Z,100660.23
2018-11-05T19:03:45.218Z,100657.17
2018-11-05T19:06:14.581Z,100650.92
2018-11-05T19:08:43.848Z,100650.74
2018-11-05T19:11:13.099Z,100654.42
2018-11-05T19:13:42.741Z,100650.53
2018-11-05T19:16:12.104Z,100641.91
2018-11-05T19:18:41.483Z,100640.20
2018-11-05T19:21:10.709Z,100645.12
2018-11-05T19:23:41.334Z,100649.80
2018-11-05T19:26:10.620Z,100644.08
2018-11-05T19:28:39.909Z,100643.49
2018-11-05T19:31:09.224Z,100648.25
2018-11-05T19:33:38.303Z,100647.17
2018-11-05T19:36:07.774Z,100649.16
2018-11-05T19:38:37.027Z,100649.83
2018-11-05T19:41:06.473Z,100650.36
2018-11-05T19:43:35.988Z,100644.77
2018-11-05T19:46:05.225Z,100653.56
2018-11-05T19:48:34.318Z,100656.22
2018-11-05T19:51:03.539Z,100653.84
2018-11-05T19:53:32.951Z,100659.89
2018-11-05T19:56:02.047Z,100656.91
2018-11-05T19:58:31.199Z,100656.48
2018-11-05T20:01:00.642Z,100656.36
2018-11-05T20:03:29.809Z,100661.45
2018-11-05T20:05:59.067Z,100658.94
2018-11-05T20:08:28.302Z,100657.59
2018-11-05T20:10:57.532Z,100657.73
2018-11-05T20:13:26.802Z,100655.36
2018-11-05T20:15:56.341Z,100652.91
2018-11-05T20:18:25.820Z,100651.80
2018-11-05T20:20:55.037Z,100652.88
2018-11-05T20:23:24.204Z,100650.00
2018-11-05T20:25:53.544Z,100650.28
2018-11-05T20:28:22.901Z,100663.25
2018-11-05T20:30:52.059Z,100656.47
2018-11-05T20:33:21.495Z,100650.89
2018-11-05T20:35:50.628Z,100650.42
2018-11-05T20:38:19.909Z,100653.72
2018-11-05T20:40:49.200Z,100654.61
2018-11-05T20:43:18.500Z,100650.77
2018-11-05T20:45:47.616Z,100649.57
2018-11-05T20:48:16.814Z,100649.12
2018-11-05T20:50:46.212Z,100654.39
2018-11-05T20:53:15.384Z,100647.55
2018-11-05T20:55:44.516Z,100646.23
2018-11-05T20:58:13.894Z,100649.06
2018-11-05T21:00:43.091Z,100645.48
2018-11-05T21:03:12.239Z,100640.55
2018-11-05T21:05:42.643Z,100634.18
2018-11-05T21:08:11.854Z,100631.50
2018-11-05T21:10:41.140Z,100624.63
2018-11-05T21:13:10.511Z,100635.70
2018-11-05T21:15:39.767Z,100631.50
2018-11-05T21:18:09.161Z,100634.84
2018-11-05T21:20:38.350Z,100631.36
2018-11-05T21:23:07.825Z,100627.14
2018-11-05T21:25:37.162Z,100625.05
2018-11-05T21:28:06.393Z,100637.29
2018-11-05T21:30:35.741Z,100637.22
2018-11-05T21:33:05.071Z,100626.87
2018-11-05T21:35:34.500Z,100633.94
2018-11-05T21:38:04.065Z,100628.56
2018-11-05T21:40:33.528Z,100633.18
2018-11-05T21:43:02.493Z,100627.30
2018-11-05T21:45:31.785Z,100629.39
2018-11-05T21:48:01.025Z,100618.49
2018-11-05T21:50:31.487Z,100623.52
2018-11-05T21:53:00.659Z,100618.30
2018-11-05T21:55:30.087Z,100620.52
2018-11-05T21:57:59.256Z,100611.07
2018-11-05T22:00:28.471Z,100603.77
2018-11-05T22:02:57.722Z,100600.81
2018-11-05T22:05:27.254Z,100597.66
2018-11-05T22:07:56.496Z,100598.14
2018-11-05T22:10:25.684Z,100599.11
2018-11-05T22:12:54.980Z,100600.73
2018-11-05T22:15:24.262Z,100593.46
2018-11-05T22:17:53.356Z,100598.89
2018-11-05T22:20:23.148Z,100596.88
2018-11-05T22:22:52.432Z,100597.63
2018-11-05T22:25:21.609Z,100597.94
2018-11-05T22:27:51.210Z,100601.77
2018-11-05T22:30:20.532Z,100603.41
2018-11-05T22:32:49.968Z,100594.96
2018-11-05T22:35:19.169Z,100596.50
2018-11-05T22:37:48.494Z,100600.50
2018-11-05T22:40:17.838Z,100594.41
2018-11-05T22:42:47.172Z,100600.73
2018-11-05T22:45:16.656Z,100599.05
2018-11-05T22:47:46.109Z,100590.52
2018-11-05T22:50:15.582Z,100601.80
2018-11-05T22:52:44.871Z,100598.19
2018-11-05T22:55:14.308Z,100588.38
2018-11-05T22:57:43.415Z,100602.22
2018-11-05T23:00:20.223Z,100598.45
2018-11-05T23:02:54.712Z,100592.75
2018-11-05T23:05:24.216Z,100587.14
2018-11-05T23:07:54.571Z,100588.02
2018-11-05T23:10:24.256Z,100603.81
2018-11-05T23:12:53.400Z,100595.08
2018-11-05T23:15:22.641Z,100602.91
2018-11-05T23:17:52.410Z,100593.11
2018-11-05T23:20:21.655Z,100589.34
2018-11-05T23:22:50.804Z,100598.69
2018-11-05T23:25:19.967Z,100591.69
2018-11-05T23:27:49.180Z,100596.02
2018-11-05T23:30:18.806Z,100589.78
2018-11-05T23:32:48.130Z,100589.71
2018-11-05T23:35:17.333Z,100585.03
2018-11-05T23:37:46.811Z,100579.95
2018-11-05T23:40:15.933Z,100576.66
2018-11-05T23:42:45.097Z,100584.02
2018-11-05T23:45:15.708Z,100579.40
2018-11-05T23:47:45.020Z,100578.81
2018-11-05T23:50:14.349Z,100582.64
2018-11-05T23:52:43.529Z,100584.48
2018-11-05T23:55:12.807Z,100589.21
2018-11-05T23:57:41.992Z,100577.47
